Time;durP1;ratioP1;P1;durP2;ratioP2;P2;SDS_P1;SDS_P2;PMS_P1;PMS_P2;Temp;Humidity;BMP_temperature;BMP_pressure;BME280_temperature;BME280_humidity;BME280_pressure;Samples;Min_cycle;Max_cycle;Signal;HPM_P1;HPM_P2
2021/09/12 00:02:07;;;;;;;5.65;2.67;;;17.30;99.90;;;;;;4880417;29;20048;-85
2021/09/12 00:04:34;;;;;;;4.40;2.40;;;17.30;99.90;;;;;;4880361;29;20049;-84
2021/09/12 00:07:01;;;;;;;4.15;2.47;;;17.30;99.90;;;;;;4880589;29;20378;-82
2021/09/12 00:09:28;;;;;;;4.65;2.70;;;17.30;99.90;;;;;;4880340;29;20155;-82
2021/09/12 00:11:55;;;;;;;6.75;2.75;;;17.30;99.90;;;;;;4880424;29;20053;-81
2021/09/12 00:14:24;;;;;;;5.43;3.00;;;17.30;99.90;;;;;;4880183;29;20078;-81
2021/09/12 00:16:51;;;;;;;5.90;2.83;;;17.30;99.90;;;;;;4885094;29;20040;-81
2021/09/12 00:19:18;;;;;;;8.75;2.80;;;17.30;99.90;;;;;;4880292;29;20053;-80
2021/09/12 00:21:45;;;;;;;5.88;2.63;;;17.20;99.90;;;;;;4880214;29;20075;-81
2021/09/12 00:24:12;;;;;;;5.00;2.78;;;17.30;99.90;;;;;;4880085;29;20059;-82
2021/09/12 00:26:40;;;;;;;4.95;2.70;;;17.20;99.90;;;;;;4878882;29;20479;-81
2021/09/12 00:29:07;;;;;;;4.05;2.53;;;17.20;99.90;;;;;;4879578;29;20053;-81
2021/09/12 00:31:35;;;;;;;5.65;2.80;;;17.20;99.90;;;;;;4880237;29;20061;-81
2021/09/12 00:34:02;;;;;;;5.55;3.03;;;17.30;99.90;;;;;;4880054;29;20049;-81
2021/09/12 00:36:29;;;;;;;4.97;2.97;;;17.20;99.90;;;;;;4879931;29;20411;-81
2021/09/12 00:38:56;;;;;;;4.97;2.95;;;17.20;99.90;;;;;;4879973;29;20075;-81
2021/09/12 00:41:23;;;;;;;5.57;2.92;;;17.20;99.90;;;;;;4879817;29;20049;-81
2021/09/12 00:43:51;;;;;;;5.22;2.90;;;17.20;99.90;;;;;;4879780;29;20053;-79
2021/09/12 00:46:18;;;;;;;5.45;2.70;;;17.20;99.90;;;;;;4879666;29;20464;-80
2021/09/12 00:48:46;;;;;;;5.65;2.80;;;17.20;99.90;;;;;;4879484;29;20061;-80
2021/09/12 00:51:13;;;;;;;5.40;2.70;;;17.20;99.90;;;;;;4879613;29;20063;-80
2021/09/12 00:53:42;;;;;;;4.22;2.53;;;17.20;99.90;;;;;;4879714;29;20053;-81
2021/09/12 00:56:09;;;;;;;5.30;3.00;;;17.20;99.90;;;;;;4879218;29;20064;-80
2021/09/12 00:58:38;;;;;;;4.97;2.83;;;17.20;99.90;;;;;;4879482;29;20064;-81
2021/09/12 01:01:05;;;;;;;7.70;2.97;;;17.20;99.90;;;;;;4879678;29;20053;-80
2021/09/12 01:03:32;;;;;;;6.97;2.90;;;17.10;99.90;;;;;;4879482;29;20067;-80
2021/09/12 01:06:02;;;;;;;6.30;2.70;;;17.10;99.90;;;;;;4879544;29;20045;-81
2021/09/12 01:08:29;;;;;;;5.50;2.75;;;17.00;99.90;;;;;;4879327;29;20055;-80
2021/09/12 01:10:56;;;;;;;5.18;2.75;;;17.00;99.90;;;;;;4879368;29;20406;-80
2021/09/12 01:13:23;;;;;;;5.32;2.42;;;17.00;99.90;;;;;;4879332;29;20060;-80
2021/09/12 01:15:50;;;;;;;4.95;2.63;;;17.00;99.90;;;;;;4879490;29;20053;-80
2021/09/12 01:18:17;;;;;;;5.05;2.78;;;17.00;99.90;;;;;;4879406;29;20053;-80
2021/09/12 01:20:45;;;;;;;4.07;2.22;;;17.00;99.90;;;;;;4879353;29;20128;-80
2021/09/12 01:23:13;;;;;;;6.18;2.70;;;17.00;99.90;;;;;;4879271;29;20131;-80
2021/09/12 01:25:41;;;;;;;4.85;2.70;;;17.00;99.90;;;;;;4879151;29;20049;-80
2021/09/12 01:28:09;;;;;;;4.40;2.22;;;17.00;99.90;;;;;;4879050;29;20049;-80
2021/09/12 01:30:36;;;;;;;4.05;2.13;;;17.00;99.90;;;;;;4879215;29;20056;-81
2021/09/12 01:33:03;;;;;;;4.55;2.50;;;16.90;99.90;;;;;;4879129;29;20514;-80
2021/09/12 01:35:30;;;;;;;5.20;2.55;;;16.90;99.90;;;;;;4878994;29;20513;-81
2021/09/12 01:37:57;;;;;;;4.13;2.40;;;16.90;99.90;;;;;;4879014;29;20049;-81
2021/09/12 01:40:24;;;;;;;6.72;2.33;;;16.90;99.90;;;;;;4878952;29;20418;-80
2021/09/12 01:42:53;;;;;;;5.45;2.30;;;16.90;99.90;;;;;;4879301;29;20045;-80
2021/09/12 01:45:20;;;;;;;4.32;2.33;;;16.90;99.90;;;;;;4879164;29;20049;-81
2021/09/12 01:47:47;;;;;;;4.47;2.40;;;16.80;99.90;;;;;;4879063;29;20053;-80
2021/09/12 01:50:16;;;;;;;5.25;2.70;;;16.80;99.90;;;;;;4878723;29;20142;-80
2021/09/12 01:52:44;;;;;;;4.20;2.78;;;16.70;99.90;;;;;;4878886;29;20055;-81
2021/09/12 01:55:12;;;;;;;5.22;2.60;;;16.70;99.90;;;;;;4879184;29;20075;-81
2021/09/12 01:57:39;;;;;;;4.90;2.63;;;16.60;99.90;;;;;;4878956;29;20056;-81
2021/09/12 02:00:09;;;;;;;5.30;2.63;;;16.60;99.90;;;;;;4879120;29;20056;-81
2021/09/12 02:02:37;;;;;;;4.22;2.60;;;16.60;99.90;;;;;;4878986;29;20392;-81
2021/09/12 02:05:05;;;;;;;5.38;2.55;;;16.50;99.90;;;;;;4878886;29;20069;-80
2021/09/12 02:07:32;;;;;;;4.68;2.53;;;16.50;99.90;;;;;;4880719;29;20399;-81
2021/09/12 02:09:59;;;;;;;4.38;2.22;;;16.50;99.90;;;;;;4882654;29;20091;-81
2021/09/12 02:12:26;;;;;;;4.85;2.30;;;16.40;99.90;;;;;;4882491;29;20053;-81
2021/09/12 02:14:53;;;;;;;4.68;2.25;;;16.40;99.90;;;;;;4882464;29;20057;-80
2021/09/12 02:17:23;;;;;;;4.93;2.50;;;16.40;99.90;;;;;;4882317;29;20049;-80
2021/09/12 02:19:51;;;;;;;3.97;2.30;;;16.40;99.90;;;;;;4882368;29;20060;-80
2021/09/12 02:22:18;;;;;;;4.05;2.60;;;16.40;99.90;;;;;;4882422;29;20045;-80
2021/09/12 02:24:45;;;;;;;4.07;2.40;;;16.40;99.90;;;;;;4882306;29;20049;-81
2021/09/12 02:27:12;;;;;;;4.55;2.60;;;16.40;99.90;;;;;;4882184;29;20067;-80
2021/09/12 02:29:39;;;;;;;5.78;2.92;;;16.40;99.90;;;;;;4882104;29;20063;-80
2021/09/12 02:32:07;;;;;;;4.35;2.70;;;16.30;99.90;;;;;;4882129;29;20056;-80
2021/09/12 02:34:35;;;;;;;4.85;2.63;;;16.30;99.90;;;;;;4882474;29;20053;-80
2021/09/12 02:37:02;;;;;;;4.60;2.72;;;16.20;99.90;;;;;;4882107;29;20049;-80
2021/09/12 02:39:30;;;;;;;6.15;2.70;;;16.20;99.90;;;;;;4882052;29;20131;-80
2021/09/12 02:41:57;;;;;;;5.10;2.90;;;16.10;99.90;;;;;;4882024;29;20417;-80
2021/09/12 02:44:24;;;;;;;4.97;2.78;;;16.10;99.90;;;;;;4881917;29;20410;-81
2021/09/12 02:46:51;;;;;;;5.40;2.90;;;16.10;99.90;;;;;;4881708;29;20045;-81
2021/09/12 02:49:18;;;;;;;5.47;2.67;;;16.10;99.90;;;;;;4881720;29;20060;-81
2021/09/12 02:51:46;;;;;;;5.35;2.70;;;16.10;99.90;;;;;;4881731;29;20142;-81
2021/09/12 02:54:13;;;;;;;4.57;2.95;;;16.10;99.90;;;;;;4881675;29;20053;-81
2021/09/12 02:56:40;;;;;;;4.13;2.17;;;16.10;99.90;;;;;;4881637;29;20051;-80
2021/09/12 02:59:07;;;;;;;5.15;2.53;;;16.10;99.90;;;;;;4881588;29;20414;-81
2021/09/12 03:01:34;;;;;;;5.45;2.80;;;16.10;99.90;;;;;;4881208;29;20509;-80
2021/09/12 03:04:01;;;;;;;3.97;2.63;;;16.10;99.90;;;;;;4881551;29;20045;-80
2021/09/12 03:06:28;;;;;;;4.15;2.55;;;16.10;99.90;;;;;;4881442;29;20491;-80
2021/09/12 03:08:57;;;;;;;6.65;2.80;;;16.10;99.90;;;;;;4881290;29;20172;-80
2021/09/12 03:11:24;;;;;;;4.75;2.92;;;16.00;99.90;;;;;;4881425;29;20058;-80
2021/09/12 03:13:51;;;;;;;3.67;2.30;;;16.10;99.90;;;;;;4881271;29;20049;-80
2021/09/12 03:16:19;;;;;;;5.20;2.65;;;16.00;99.90;;;;;;4881494;29;20100;-80
2021/09/12 03:18:46;;;;;;;3.75;2.50;;;16.00;99.90;;;;;;4880952;29;20056;-80
2021/09/12 03:21:13;;;;;;;5.10;2.60;;;16.00;99.90;;;;;;4881421;29;20148;-81
2021/09/12 03:23:41;;;;;;;4.32;2.80;;;16.00;99.90;;;;;;4881110;29;20049;-81
2021/09/12 03:26:10;;;;;;;4.45;2.72;;;16.00;99.90;;;;;;4881037;29;20059;-81
2021/09/12 03:28:37;;;;;;;3.78;2.60;;;16.00;99.90;;;;;;4880216;29;20080;-80
2021/09/12 03:31:05;;;;;;;4.38;2.50;;;16.00;99.90;;;;;;4880929;29;20059;-80
2021/09/12 03:33:32;;;;;;;5.15;2.67;;;16.00;99.90;;;;;;4880879;29;20499;-80
2021/09/12 03:35:59;;;;;;;4.65;3.05;;;16.00;99.90;;;;;;4881159;29;20470;-80
2021/09/12 03:38:26;;;;;;;5.45;2.65;;;16.00;99.90;;;;;;4880921;29;20144;-80
2021/09/12 03:40:53;;;;;;;4.90;2.50;;;16.00;99.90;;;;;;4880791;29;20144;-80
2021/09/12 03:43:21;;;;;;;5.65;2.72;;;16.00;99.90;;;;;;4881047;29;20045;-80
2021/09/12 03:45:49;;;;;;;4.88;2.45;;;16.00;99.90;;;;;;4880905;29;20055;-80
2021/09/12 03:48:16;;;;;;;3.92;2.28;;;16.00;99.90;;;;;;4880779;29;20398;-80
2021/09/12 03:50:43;;;;;;;3.70;2.33;;;16.00;99.90;;;;;;4880471;29;20063;-80
2021/09/12 03:53:10;;;;;;;4.53;2.63;;;16.00;99.90;;;;;;4880685;29;20070;-80
2021/09/12 03:55:37;;;;;;;4.93;2.40;;;16.00;99.90;;;;;;4880610;29;20696;-81
2021/09/12 03:58:04;;;;;;;3.90;2.60;;;16.00;99.90;;;;;;4880621;29;20136;-80
2021/09/12 04:00:33;;;;;;;5.28;2.42;;;15.90;99.90;;;;;;4880447;29;20139;-81
2021/09/12 04:03:00;;;;;;;5.15;2.42;;;15.90;99.90;;;;;;4880550;29;20095;-80
2021/09/12 04:05:27;;;;;;;5.25;2.58;;;15.90;99.90;;;;;;4880393;29;20053;-81
2021/09/12 04:07:54;;;;;;;4.13;2.30;;;15.90;99.90;;;;;;4880004;29;20140;-81
2021/09/12 04:10:22;;;;;;;4.85;2.65;;;15.80;99.90;;;;;;4880277;29;20063;-81
2021/09/12 04:12:49;;;;;;;5.70;2.83;;;15.80;99.90;;;;;;4880450;29;20056;-81
2021/09/12 04:15:16;;;;;;;6.53;3.10;;;15.80;99.90;;;;;;4880377;29;20131;-81
2021/09/12 04:17:44;;;;;;;6.50;2.90;;;15.70;99.90;;;;;;4880254;29;20073;-81
2021/09/12 04:20:13;;;;;;;5.38;2.72;;;15.70;99.90;;;;;;4880260;29;20095;-81
2021/09/12 04:22:40;;;;;;;4.65;2.85;;;15.60;99.90;;;;;;4880135;29;20411;-81
2021/09/12 04:25:08;;;;;;;4.93;2.50;;;15.60;99.90;;;;;;4880378;29;20139;-82
2021/09/12 04:27:35;;;;;;;3.65;2.30;;;15.50;99.90;;;;;;4879893;29;20392;-81
2021/09/12 04:30:02;;;;;;;4.70;2.95;;;15.50;99.90;;;;;;4879315;29;20064;-80
2021/09/12 04:32:30;;;;;;;5.22;2.25;;;15.50;99.90;;;;;;4879685;29;20132;-81
2021/09/12 04:34:58;;;;;;;5.15;2.60;;;15.50;99.90;;;;;;4879745;29;20077;-81
2021/09/12 04:37:25;;;;;;;5.75;2.80;;;15.40;99.90;;;;;;4878850;29;20140;-81
2021/09/12 04:39:52;;;;;;;4.72;2.88;;;15.40;99.90;;;;;;4879632;29;20091;-81
2021/09/12 04:42:19;;;;;;;4.30;2.47;;;15.50;99.90;;;;;;4879939;29;20124;-80
2021/09/12 04:44:46;;;;;;;4.05;2.70;;;15.40;99.90;;;;;;4879440;29;20410;-81
2021/09/12 04:47:14;;;;;;;4.18;2.75;;;15.40;99.90;;;;;;4879179;29;20515;-81
2021/09/12 04:49:41;;;;;;;5.40;2.80;;;15.40;99.90;;;;;;4879062;29;20063;-80
2021/09/12 04:52:09;;;;;;;4.53;2.65;;;15.40;99.90;;;;;;4879883;29;20057;-80
2021/09/12 04:54:37;;;;;;;4.00;2.45;;;15.40;99.90;;;;;;4879465;29;20063;-80
2021/09/12 04:57:05;;;;;;;4.20;2.63;;;15.50;99.90;;;;;;4879735;29;20132;-80
2021/09/12 04:59:33;;;;;;;4.78;3.00;;;15.50;99.90;;;;;;4879567;29;20060;-80
2021/09/12 05:02:00;;;;;;;4.70;2.75;;;15.50;99.90;;;;;;4879456;29;20570;-81
2021/09/12 05:04:27;;;;;;;5.13;3.00;;;15.40;99.90;;;;;;4879427;29;20057;-81
2021/09/12 05:06:54;;;;;;;4.40;3.00;;;15.50;99.90;;;;;;4879508;29;20063;-81
2021/09/12 05:09:23;;;;;;;6.55;3.38;;;15.40;99.90;;;;;;4879448;29;20045;-80
2021/09/12 05:11:50;;;;;;;5.00;3.00;;;15.30;99.90;;;;;;4879420;29;20140;-80
2021/09/12 05:14:17;;;;;;;4.82;2.90;;;15.30;99.90;;;;;;4879176;29;20053;-81
2021/09/12 05:16:44;;;;;;;4.60;2.65;;;15.30;99.90;;;;;;4879279;29;20470;-81
2021/09/12 05:19:12;;;;;;;5.38;3.08;;;15.30;99.90;;;;;;4879489;29;20124;-80
2021/09/12 05:21:39;;;;;;;5.05;2.70;;;15.30;99.90;;;;;;4879514;29;20055;-80
2021/09/12 05:24:06;;;;;;;4.55;2.83;;;15.30;99.90;;;;;;4879370;29;20049;-80
2021/09/12 05:26:35;;;;;;;4.30;2.63;;;15.30;99.90;;;;;;4879215;29;20057;-80
2021/09/12 05:29:02;;;;;;;4.75;2.70;;;15.30;99.90;;;;;;4879289;29;20128;-80
2021/09/12 05:31:29;;;;;;;4.65;2.60;;;15.30;99.90;;;;;;4878994;29;20063;-80
2021/09/12 05:33:56;;;;;;;4.10;2.53;;;15.40;99.90;;;;;;4879317;29;20049;-80
2021/09/12 05:36:23;;;;;;;4.40;2.67;;;15.40;99.90;;;;;;4879268;29;20086;-79
2021/09/12 05:38:50;;;;;;;5.28;2.60;;;15.40;99.90;;;;;;4879213;29;20088;-78
2021/09/12 05:41:17;;;;;;;4.15;2.42;;;15.40;99.90;;;;;;4880839;29;20110;-80
2021/09/12 05:43:46;;;;;;;4.45;2.40;;;15.40;99.90;;;;;;4882799;29;20495;-81
2021/09/12 05:46:13;;;;;;;4.45;2.10;;;15.40;99.90;;;;;;4883189;29;20326;-82
2021/09/12 05:48:40;;;;;;;3.30;2.10;;;15.40;99.90;;;;;;4882792;29;20060;-81
2021/09/12 05:51:07;;;;;;;4.47;2.50;;;15.40;99.90;;;;;;4882919;29;20057;-80
2021/09/12 05:53:34;;;;;;;3.45;2.28;;;15.40;99.90;;;;;;4882845;29;20124;-81
2021/09/12 05:56:01;;;;;;;4.53;2.30;;;15.40;99.90;;;;;;4882788;29;20045;-81
2021/09/12 05:58:28;;;;;;;4.32;2.40;;;15.40;99.90;;;;;;4882620;29;20128;-80
2021/09/12 06:00:56;;;;;;;3.17;1.90;;;15.50;99.90;;;;;;4882799;29;20135;-81
2021/09/12 06:03:23;;;;;;;3.92;2.50;;;15.50;99.90;;;;;;4882507;29;20566;-80
2021/09/12 06:05:50;;;;;;;3.47;2.22;;;15.40;99.90;;;;;;4882422;29;20056;-80
2021/09/12 06:08:17;;;;;;;3.55;2.10;;;15.40;99.90;;;;;;4882627;29;20361;-81
2021/09/12 06:10:45;;;;;;;3.83;2.20;;;15.30;99.90;;;;;;4882345;29;20049;-80
2021/09/12 06:13:12;;;;;;;3.47;1.90;;;15.20;99.90;;;;;;4882653;29;20406;-80
2021/09/12 06:15:39;;;;;;;3.80;2.10;;;15.20;99.90;;;;;;4882534;29;20060;-80
2021/09/12 06:18:07;;;;;;;3.45;1.90;;;15.10;99.90;;;;;;4882626;29;20057;-80
2021/09/12 06:20:34;;;;;;;3.60;2.10;;;15.10;99.90;;;;;;4882418;29;20145;-80
2021/09/12 06:23:02;;;;;;;3.97;2.30;;;15.20;99.90;;;;;;4882269;29;20117;-80
2021/09/12 06:25:29;;;;;;;3.60;2.00;;;15.30;99.90;;;;;;4882059;29;20051;-80
2021/09/12 06:27:56;;;;;;;3.60;1.98;;;15.30;99.90;;;;;;4882376;29;20045;-81
2021/09/12 06:30:23;;;;;;;3.60;2.10;;;15.40;99.90;;;;;;4881915;29;20059;-80
2021/09/12 06:32:50;;;;;;;3.25;2.05;;;15.40;99.90;;;;;;4881954;29;20140;-80
2021/09/12 06:35:19;;;;;;;4.20;2.15;;;15.40;99.90;;;;;;4881812;29;20402;-80
2021/09/12 06:37:46;;;;;;;3.65;2.10;;;15.50;99.90;;;;;;4882093;29;20053;-80
2021/09/12 06:40:14;;;;;;;3.70;2.30;;;15.40;99.90;;;;;;4881895;29;20053;-80
2021/09/12 06:42:41;;;;;;;3.80;2.22;;;15.40;99.90;;;;;;4881988;29;20064;-80
2021/09/12 06:45:09;;;;;;;4.07;2.33;;;15.30;99.90;;;;;;4881941;29;20491;-80
2021/09/12 06:47:37;;;;;;;3.10;1.80;;;15.20;99.90;;;;;;4881910;29;20106;-80
2021/09/12 06:50:05;;;;;;;3.45;2.22;;;15.20;99.90;;;;;;4881580;29;20061;-80
2021/09/12 06:52:34;;;;;;;4.72;2.55;;;15.20;99.90;;;;;;4881126;29;20053;-80
2021/09/12 06:55:01;;;;;;;4.45;2.67;;;15.20;99.90;;;;;;4881671;29;20502;-80
2021/09/12 06:57:28;;;;;;;4.35;2.83;;;15.20;99.90;;;;;;4881820;29;20049;-80
2021/09/12 06:59:55;;;;;;;3.80;2.40;;;15.20;99.90;;;;;;4881645;29;20056;-80
2021/09/12 07:02:22;;;;;;;3.53;1.95;;;15.10;99.90;;;;;;4881549;29;20052;-80
2021/09/12 07:04:49;;;;;;;3.70;2.35;;;15.10;99.90;;;;;;4881495;29;20502;-80
2021/09/12 07:07:16;;;;;;;3.67;2.30;;;15.10;99.90;;;;;;4881515;29;20049;-80
2021/09/12 07:09:44;;;;;;;4.20;2.42;;;15.10;99.90;;;;;;4881382;29;20045;-79
2021/09/12 07:12:12;;;;;;;5.05;2.22;;;15.20;99.90;;;;;;4881528;29;20143;-80
2021/09/12 07:14:39;;;;;;;5.60;2.92;;;15.20;99.90;;;;;;4881192;29;20123;-80
2021/09/12 07:17:07;;;;;;;4.38;2.97;;;15.20;99.90;;;;;;4881268;29;20059;-80
2021/09/12 07:19:34;;;;;;;4.03;2.67;;;15.20;99.90;;;;;;4881120;29;20053;-80
2021/09/12 07:22:01;;;;;;;4.38;2.50;;;15.20;99.90;;;;;;4881404;29;20049;-80
2021/09/12 07:24:29;;;;;;;4.10;2.80;;;15.30;99.90;;;;;;4881128;29;20099;-80
2021/09/12 07:26:57;;;;;;;4.20;2.80;;;15.30;99.90;;;;;;4881225;29;20049;-80
2021/09/12 07:29:25;;;;;;;3.83;2.60;;;15.40;99.90;;;;;;4881093;29;20053;-80
2021/09/12 07:31:52;;;;;;;4.30;2.85;;;15.40;99.90;;;;;;4880256;29;20055;-77
2021/09/12 07:34:19;;;;;;;4.70;2.60;;;15.50;99.90;;;;;;4879701;29;20053;-76
2021/09/12 07:36:46;;;;;;;3.92;2.55;;;15.60;99.90;;;;;;4879932;29;20080;-76
2021/09/12 07:39:13;;;;;;;5.25;3.30;;;15.60;99.90;;;;;;4874165;29;20049;-77
2021/09/12 07:41:40;;;;;;;4.72;2.60;;;15.60;99.90;;;;;;4879523;29;20143;-77
2021/09/12 07:44:09;;;;;;;3.88;2.67;;;15.70;99.90;;;;;;4879677;29;20047;-77
2021/09/12 07:46:36;;;;;;;4.47;3.28;;;15.70;99.90;;;;;;4880242;29;20105;-75
2021/09/12 07:49:03;;;;;;;4.82;2.95;;;15.70;99.90;;;;;;4880695;29;20063;-80
2021/09/12 07:51:30;;;;;;;4.00;2.70;;;15.70;99.90;;;;;;4879984;29;20057;-79
2021/09/12 07:53:57;;;;;;;4.68;3.20;;;15.80;99.90;;;;;;4878762;29;20055;-79
2021/09/12 07:56:24;;;;;;;5.35;3.50;;;15.80;99.90;;;;;;4879682;29;20104;-79
2021/09/12 07:58:52;;;;;;;4.45;3.22;;;15.80;99.90;;;;;;4884195;29;20045;-80
2021/09/12 08:01:20;;;;;;;4.78;3.08;;;15.80;99.90;;;;;;4888679;29;20053;-82
2021/09/12 08:03:47;;;;;;;4.72;3.40;;;15.90;99.90;;;;;;4872379;29;20051;-80
2021/09/12 08:06:14;;;;;;;4.20;2.88;;;15.90;99.90;;;;;;4879662;29;20059;-79
2021/09/12 08:08:41;;;;;;;4.18;2.97;;;16.00;99.90;;;;;;4880154;29;20056;-80
2021/09/12 08:11:08;;;;;;;4.60;2.88;;;16.00;99.90;;;;;;4877848;29;20406;-80
2021/09/12 08:13:35;;;;;;;4.40;2.85;;;16.00;99.90;;;;;;4879052;29;20495;-80
2021/09/12 08:16:02;;;;;;;5.03;3.40;;;16.20;99.90;;;;;;4879713;29;20049;-79
2021/09/12 08:18:31;;;;;;;4.00;2.80;;;16.20;99.90;;;;;;4880095;29;20085;-79
2021/09/12 08:20:58;;;;;;;4.28;2.90;;;16.30;99.90;;;;;;4879307;29;20148;-79
2021/09/12 08:23:25;;;;;;;5.50;3.60;;;16.40;99.90;;;;;;4879236;29;20051;-79
2021/09/12 08:25:52;;;;;;;7.20;4.40;;;16.50;99.90;;;;;;4879445;29;20055;-79
2021/09/12 08:28:19;;;;;;;5.93;4.07;;;16.60;99.90;;;;;;4878856;29;20482;-79
2021/09/12 08:30:46;;;;;;;6.53;3.67;;;16.60;99.90;;;;;;4879555;29;20059;-79
2021/09/12 08:33:15;;;;;;;5.32;3.53;;;16.60;99.90;;;;;;4880179;29;20057;-79
2021/09/12 08:35:45;;;;;;;4.60;3.45;;;16.70;99.90;;;;;;4879691;29;20116;-79
2021/09/12 08:38:13;;;;;;;4.35;3.03;;;16.80;99.90;;;;;;4879684;29;20059;-80
2021/09/12 08:40:40;;;;;;;6.43;3.60;;;16.90;99.90;;;;;;4878769;29;20055;-80
2021/09/12 08:43:08;;;;;;;4.75;3.40;;;17.00;99.90;;;;;;4879005;29;20053;-80
2021/09/12 08:45:36;;;;;;;5.13;3.63;;;17.20;99.90;;;;;;4879875;29;20132;-80
2021/09/12 08:48:05;;;;;;;4.40;3.22;;;17.20;99.90;;;;;;4879724;29;20124;-80
2021/09/12 08:50:32;;;;;;;5.70;3.08;;;17.30;99.90;;;;;;4878996;29;20055;-79
2021/09/12 08:53:00;;;;;;;4.35;3.20;;;17.40;99.90;;;;;;4878866;29;20079;-80
2021/09/12 08:55:27;;;;;;;4.95;3.00;;;17.50;99.90;;;;;;4878982;29;20057;-80
2021/09/12 08:57:58;;;;;;;5.30;3.00;;;17.60;99.90;;;;;;4879049;29;20049;-79
2021/09/12 09:00:26;;;;;;;5.20;3.13;;;17.70;99.90;;;;;;4878977;29;20574;-79
2021/09/12 09:02:59;;;;;;;4.30;3.00;;;17.70;99.90;;;;;;4879223;29;20053;-79
2021/09/12 09:05:31;;;;;;;3.60;2.42;;;17.80;99.90;;;;;;4879390;29;20056;-79
2021/09/12 09:08:11;;;;;;;4.50;2.83;;;17.90;99.90;;;;;;4878960;29;20049;-79
2021/09/12 09:10:42;;;;;;;5.13;2.70;;;17.90;99.90;;;;;;4879243;29;20088;-79
2021/09/12 09:13:30;;;;;;;4.82;3.20;;;18.00;99.90;;;;;;4879958;29;20088;-79
2021/09/12 09:15:58;;;;;;;5.10;3.10;;;18.00;99.90;;;;;;4878226;29;20048;-79
2021/09/12 09:18:34;;;;;;;5.18;2.70;;;18.00;99.90;;;;;;4878224;29;20057;-80
2021/09/12 09:21:02;;;;;;;4.97;2.97;;;18.10;99.90;;;;;;4877974;29;20045;-81
2021/09/12 09:23:30;;;;;;;3.90;2.60;;;18.10;99.90;;;;;;4879344;29;20489;-81
2021/09/12 09:25:58;;;;;;;4.03;2.50;;;18.10;99.90;;;;;;4879328;29;20463;-80
2021/09/12 09:28:27;;;;;;;4.25;2.90;;;18.20;99.90;;;;;;4878845;29;20080;-80
2021/09/12 09:30:57;;;;;;;4.70;2.70;;;18.20;99.90;;;;;;4878626;29;20180;-81
2021/09/12 09:33:27;;;;;;;4.40;2.80;;;18.30;99.90;;;;;;4878990;29;20057;-81
2021/09/12 09:36:02;;;;;;;5.32;3.13;;;18.40;99.90;;;;;;4878284;29;20514;-80
2021/09/12 09:38:33;;;;;;;4.28;2.92;;;18.40;99.90;;;;;;4879089;29;20125;-81
2021/09/12 09:41:13;;;;;;;4.35;3.03;;;18.50;99.90;;;;;;4878816;29;20061;-81
2021/09/12 09:43:48;;;;;;;4.95;3.25;;;18.60;99.90;;;;;;4869620;29;20070;-81
2021/09/12 09:46:31;;;;;;;4.30;2.72;;;18.60;99.90;;;;;;4878965;29;20073;-81
2021/09/12 09:49:00;;;;;;;3.72;2.80;;;18.70;99.90;;;;;;4860021;29;20110;-81
2021/09/12 09:51:29;;;;;;;3.97;2.63;;;18.80;99.90;;;;;;4860277;29;20057;-81
2021/09/12 09:53:59;;;;;;;4.25;2.10;;;18.90;99.90;;;;;;4860396;29;20053;-81
2021/09/12 09:56:26;;;;;;;4.82;2.80;;;19.00;99.90;;;;;;4860390;29;20079;-80
2021/09/12 09:58:55;;;;;;;5.50;3.08;;;19.10;99.90;;;;;;4863988;29;20049;-81
2021/09/12 10:01:22;;;;;;;5.65;3.30;;;19.20;99.90;;;;;;4878546;29;20053;-80
2021/09/12 10:03:49;;;;;;;4.00;3.00;;;19.20;99.90;;;;;;4878374;29;20049;-83
2021/09/12 10:06:17;;;;;;;7.63;3.42;;;19.30;99.90;;;;;;4878721;29;20091;-83
2021/09/12 10:08:46;;;;;;;5.15;2.58;;;19.40;99.90;;;;;;4878651;29;20049;-82
2021/09/12 10:11:17;;;;;;;4.07;2.60;;;19.40;99.90;;;;;;4877938;29;20056;-82
2021/09/12 10:13:46;;;;;;;4.25;2.72;;;19.40;99.90;;;;;;4877826;29;20057;-83
2021/09/12 10:16:17;;;;;;;5.78;2.92;;;19.40;99.90;;;;;;4877485;29;20053;-83
2021/09/12 10:18:44;;;;;;;5.00;3.50;;;19.50;99.90;;;;;;4878190;29;20414;-83
2021/09/12 10:21:26;;;;;;;6.50;3.40;;;19.50;99.90;;;;;;4878420;29;20053;-82
2021/09/12 10:24:07;;;;;;;5.97;3.30;;;19.60;99.90;;;;;;4871396;29;20140;-82
2021/09/12 10:26:40;;;;;;;4.38;2.80;;;19.60;99.90;;;;;;4878268;29;20407;-82
2021/09/12 10:29:52;;;;;;;4.25;2.88;;;19.60;99.70;;;;;;4880986;29;20440;-83
2021/09/12 10:32:33;;;;;;;4.65;2.60;;;19.70;99.40;;;;;;4874675;29;20053;-82
2021/09/12 10:35:20;;;;;;;4.13;2.40;;;19.70;99.30;;;;;;4882175;29;20064;-83
2021/09/12 10:38:00;;;;;;;4.00;2.30;;;19.70;98.50;;;;;;4881706;29;20045;-82
2021/09/12 10:41:15;;;;;;;3.60;2.20;;;19.70;98.40;;;;;;4881537;29;20045;-89
2021/09/12 10:43:56;;;;;;;3.92;2.03;;;19.70;98.60;;;;;;4881239;29;20132;-89
2021/09/12 10:46:30;;;;;;;2.75;1.60;;;19.80;97.70;;;;;;4882233;29;20080;-88
2021/09/12 10:49:11;;;;;;;;;;;19.80;97.40;;;;;;4882039;29;20061;-89
2021/09/12 10:51:43;;;;;;;3.20;1.70;;;19.90;97.20;;;;;;4881377;29;19928;-89
2021/09/12 10:54:12;;;;;;;3.35;1.80;;;20.00;97.30;;;;;;4878345;29;20388;-89
2021/09/12 10:56:40;;;;;;;4.72;1.85;;;20.00;97.50;;;;;;4881714;29;20053;-89
2021/09/12 10:59:13;;;;;;;3.75;1.90;;;20.00;96.80;;;;;;4882041;29;20060;-88
2021/09/12 11:01:45;;;;;;;3.90;1.90;;;20.10;96.80;;;;;;4881822;29;20053;-88
2021/09/12 11:04:14;;;;;;;3.35;1.80;;;20.10;96.10;;;;;;4881780;29;20059;-91
2021/09/12 11:06:45;;;;;;;4.05;1.60;;;20.10;96.10;;;;;;4880851;29;20049;-90
2021/09/12 11:09:25;;;;;;;3.17;1.70;;;20.20;96.20;;;;;;4881509;29;20049;-88
2021/09/12 11:11:59;;;;;;;3.50;1.40;;;20.20;95.90;;;;;;4881115;29;20084;-89
2021/09/12 11:14:29;;;;;;;3.95;1.73;;;20.30;96.10;;;;;;4881399;29;20435;-89
2021/09/12 11:17:05;;;;;;;2.78;1.42;;;20.30;96.10;;;;;;4880824;29;20085;-89
2021/09/12 11:19:33;;;;;;;3.72;1.65;;;20.40;95.80;;;;;;4880984;29;20061;-88
2021/09/12 11:22:02;;;;;;;3.58;1.90;;;20.40;94.80;;;;;;4879967;29;20048;-89
2021/09/12 11:24:30;;;;;;;3.20;1.60;;;20.40;94.90;;;;;;4880384;29;20173;-89
2021/09/12 11:26:59;;;;;;;3.08;1.50;;;20.50;94.80;;;;;;4881285;29;20052;-87
2021/09/12 11:29:30;;;;;;;2.65;1.50;;;20.50;94.90;;;;;;4881460;29;20053;-88
2021/09/12 11:32:02;;;;;;;2.80;1.40;;;20.60;95.30;;;;;;4881088;29;20060;-89
2021/09/12 11:34:29;;;;;;;3.30;1.45;;;20.70;95.10;;;;;;4881807;29;20139;-88
2021/09/12 11:36:59;;;;;;;3.42;1.35;;;20.70;94.90;;;;;;4885867;29;20101;-87
2021/09/12 11:39:29;;;;;;;3.08;1.50;;;20.80;94.80;;;;;;4892885;29;20140;-88
2021/09/12 11:41:58;;;;;;;3.45;1.50;;;20.90;94.80;;;;;;4890217;29;20120;-88
2021/09/12 11:44:33;;;;;;;3.75;1.70;;;21.00;94.60;;;;;;4887149;29;20092;-87
2021/09/12 11:47:03;;;;;;;3.13;1.65;;;21.00;94.00;;;;;;4887073;29;20060;-89
2021/09/12 11:49:31;;;;;;;2.85;1.65;;;21.20;94.20;;;;;;4883658;29;20049;-88
2021/09/12 11:51:58;;;;;;;2.83;1.40;;;21.20;93.90;;;;;;4880535;29;20067;-87
2021/09/12 11:54:28;;;;;;;3.15;1.30;;;21.30;94.00;;;;;;4880176;29;20052;-87
2021/09/12 11:56:59;;;;;;;2.50;1.30;;;21.40;93.80;;;;;;4880396;29;20060;-88
2021/09/12 11:59:29;;;;;;;3.17;1.40;;;21.50;93.60;;;;;;4880533;29;20087;-89
2021/09/12 12:02:00;;;;;;;3.13;1.38;;;21.60;93.70;;;;;;4880804;29;20068;-88
2021/09/12 12:04:29;;;;;;;4.53;1.60;;;21.70;92.50;;;;;;4874515;29;20085;-90
2021/09/12 12:06:58;;;;;;;3.75;1.20;;;21.80;91.80;;;;;;4880892;29;20071;-90
2021/09/12 12:09:29;;;;;;;2.78;1.20;;;21.80;91.60;;;;;;4880525;29;20049;-90
2021/09/12 12:12:07;;;;;;;2.95;1.20;;;22.00;91.40;;;;;;4879683;29;20069;-88
2021/09/12 12:14:34;;;;;;;2.55;1.20;;;22.10;91.20;;;;;;4878858;29;20144;-89
2021/09/12 12:17:06;;;;;;;4.35;1.23;;;22.20;91.10;;;;;;4879737;29;20136;-90
2021/09/12 12:19:36;;;;;;;2.50;1.10;;;22.30;91.40;;;;;;4880670;29;20053;-91
2021/09/12 12:22:08;;;;;;;2.45;1.27;;;22.40;90.70;;;;;;4879392;29;20103;-89
2021/09/12 12:24:37;;;;;;;2.60;1.30;;;22.50;90.40;;;;;;4879855;29;20052;-89
2021/09/12 12:27:09;;;;;;;3.53;1.50;;;22.70;90.10;;;;;;4885267;29;20224;-91
2021/09/12 12:29:40;;;;;;;2.80;1.20;;;22.80;89.50;;;;;;4891719;29;20071;-90
2021/09/12 12:32:11;;;;;;;2.55;1.10;;;22.90;88.70;;;;;;4890162;29;20069;-89
2021/09/12 12:34:52;;;;;;;2.30;1.10;;;23.00;89.30;;;;;;4881751;29;20476;-89
2021/09/12 12:37:22;;;;;;;2.58;1.25;;;23.20;89.30;;;;;;4879547;29;20056;-89
2021/09/12 12:40:01;;;;;;;2.63;1.25;;;23.30;86.50;;;;;;4880012;29;20143;-90
2021/09/12 12:42:35;;;;;;;3.72;1.45;;;23.40;84.60;;;;;;4880059;29;20041;-90
2021/09/12 12:45:19;;;;;;;3.30;1.20;;;23.50;81.70;;;;;;4879997;29;20055;-87
2021/09/12 12:47:48;;;;;;;;;;;23.60;81.00;;;;;;4888287;29;20059;-87
2021/09/12 12:50:29;;;;;;;3.22;1.25;;;23.70;78.60;;;;;;4886279;29;20368;-87
2021/09/12 12:53:14;;;;;;;3.10;1.40;;;23.70;78.40;;;;;;4888220;29;20072;-87
2021/09/12 12:55:41;;;;;;;3.22;1.50;;;23.80;77.60;;;;;;4884775;29;20498;-87
2021/09/12 12:58:12;;;;;;;2.95;1.48;;;23.90;77.70;;;;;;4888256;29;20143;-86